Time;durP1;ratioP1;P1;durP2;ratioP2;P2;SDS_P1;SDS_P2;PMS_P1;PMS_P2;Temp;Humidity;BMP_temperature;BMP_pressure;BME280_temperature;BME280_humidity;BME280_pressure;Samples;Min_cycle;Max_cycle;Signal;HPM_P1;HPM_P2
2022/06/02 00:01:30;;;;;;;;;2.00;2.00;26.00;99.90;;;;;;5014657;28;9551;-51
2022/06/02 00:04:12;;;;;;;;;4.25;2.25;26.00;99.90;;;;;;5019260;28;8985;-49
2022/06/02 00:07:07;;;;;;;;;2.50;2.50;26.10;99.90;;;;;;5015820;28;8916;-51
2022/06/02 00:09:49;;;;;;;;;3.00;3.00;26.00;99.90;;;;;;5016755;28;8903;-52
2022/06/02 00:12:34;;;;;;;;;2.25;2.25;26.00;99.90;;;;;;5017463;28;8817;-50
2022/06/02 00:15:23;;;;;;;;;3.00;3.00;26.00;99.90;;;;;;5012582;28;8821;-48
2022/06/02 00:18:08;;;;;;;;;5.67;4.00;26.10;99.90;;;;;;5011621;28;9559;-52
2022/06/02 00:20:59;;;;;;;;;3.00;3.00;26.00;99.90;;;;;;5016081;28;9592;-53
2022/06/02 00:23:41;;;;;;;;;3.00;3.00;26.00;99.90;;;;;;5017155;28;8976;-58
2022/06/02 00:26:28;;;;;;;;;2.00;2.00;26.00;99.90;;;;;;5019023;28;8857;-58
2022/06/02 00:29:08;;;;;;;;;3.00;2.25;26.00;99.90;;;;;;5018420;28;9642;-50
2022/06/02 00:31:49;;;;;;;;;2.00;1.75;25.90;99.90;;;;;;5012200;28;8996;-49
2022/06/02 00:34:28;;;;;;;;;2.00;2.00;26.00;99.90;;;;;;5012883;28;8960;-50
2022/06/02 00:37:25;;;;;;;;;3.25;2.75;26.10;99.90;;;;;;5014598;28;8889;-50
2022/06/02 00:39:56;;;;;;;;;3.50;2.25;26.10;99.90;;;;;;5012128;28;9002;-50
2022/06/02 00:43:11;;;;;;;;;4.00;2.50;26.10;99.90;;;;;;5015413;28;8995;-51
2022/06/02 00:45:44;;;;;;;;;2.00;2.00;26.00;99.90;;;;;;5010433;28;8964;-51
2022/06/02 00:48:28;;;;;;;;;2.25;2.25;25.90;99.90;;;;;;5016241;28;8984;-52
2022/06/02 00:51:09;;;;;;;;;3.00;3.00;25.90;99.90;;;;;;5018099;28;8896;-53
2022/06/02 00:57:45;;;;;;;;;1.75;1.75;25.70;99.90;;;;;;5019414;28;8845;-58
2022/06/02 01:00:23;;;;;;;;;2.00;2.00;25.60;99.90;;;;;;5009504;28;8843;-59
2022/06/02 01:03:20;;;;;;;;;5.75;3.75;25.50;99.90;;;;;;5016184;28;8841;-51
2022/06/02 01:06:23;;;;;;;;;2.50;2.50;25.40;99.90;;;;;;5014922;28;8876;-52
2022/06/02 01:09:04;;;;;;;;;1.00;1.00;25.20;99.90;;;;;;5013082;28;8955;-51
2022/06/02 01:12:08;;;;;;;;;3.00;3.00;25.10;99.90;;;;;;5013810;28;8932;-51
2022/06/02 01:14:56;;;;;;;;;2.25;2.25;24.90;99.90;;;;;;5015374;28;8865;-52
2022/06/02 01:17:52;;;;;;;;;3.00;3.00;24.90;99.90;;;;;;5012734;28;8857;-51
2022/06/02 01:20:52;;;;;;;;;0.00;0.00;24.80;99.90;;;;;;5015113;28;8872;-53
2022/06/02 01:23:49;;;;;;;;;2.00;2.00;24.80;99.90;;;;;;5014791;28;8904;-50
2022/06/02 01:26:38;;;;;;;;;2.25;2.25;24.70;99.90;;;;;;5016209;28;8833;-51
2022/06/02 01:29:43;;;;;;;;;2.25;2.25;24.50;99.90;;;;;;5016917;28;9000;-52
2022/06/02 01:32:20;;;;;;;;;2.50;2.50;24.50;99.90;;;;;;5011676;28;8884;-52
2022/06/02 01:35:00;;;;;;;;;4.25;3.50;24.40;99.90;;;;;;5021149;28;9539;-51
2022/06/02 01:38:14;;;;;;;;;3.00;3.00;24.40;99.90;;;;;;5013124;28;9003;-54
2022/06/02 01:41:12;;;;;;;;;4.75;3.50;24.40;99.90;;;;;;5010495;28;9599;-52
2022/06/02 01:44:07;;;;;;;;;3.00;3.00;24.50;99.90;;;;;;5012994;28;8868;-49
2022/06/02 01:47:09;;;;;;;;;3.25;2.75;24.50;99.90;;;;;;5016758;28;9382;-53
2022/06/02 01:49:43;;;;;;;;;3.00;3.00;24.40;99.90;;;;;;4993341;28;8992;-58
2022/06/02 01:52:50;;;;;;;;;3.25;2.75;24.40;99.90;;;;;;5016906;28;9560;-52
2022/06/02 01:55:30;;;;;;;;;4.00;4.00;24.40;99.90;;;;;;5021176;28;8825;-53
2022/06/02 01:58:27;;;;;;;;;3.00;3.00;24.40;99.90;;;;;;5023244;28;8872;-58
2022/06/02 02:01:27;;;;;;;;;4.25;4.25;24.30;99.90;;;;;;5016096;28;8896;-61
2022/06/02 02:04:15;;;;;;;;;2.50;2.50;24.20;99.90;;;;;;5016857;28;8854;-52
2022/06/02 02:07:00;;;;;;;;;2.25;2.25;24.20;99.90;;;;;;5017962;28;8865;-51
2022/06/02 02:09:40;;;;;;;;;2.00;2.00;24.20;99.90;;;;;;5018355;28;8916;-52
2022/06/02 02:12:34;;;;;;;;;1.50;1.50;24.10;99.90;;;;;;5015674;28;8873;-52
2022/06/02 02:15:34;;;;;;;;;2.50;2.50;24.00;99.90;;;;;;5019338;28;8833;-52
2022/06/02 02:18:43;;;;;;;;;5.00;3.25;23.80;99.90;;;;;;5011139;28;9667;-54
2022/06/02 02:21:43;;;;;;;;;2.25;2.25;23.60;99.90;;;;;;5017763;28;9575;-49
2022/06/02 02:24:55;;;;;;;;;2.25;2.25;23.70;99.90;;;;;;5016660;28;8861;-51
2022/06/02 02:28:02;;;;;;;;;1.25;1.25;23.60;99.90;;;;;;4998403;28;9045;-52
2022/06/02 02:30:29;;;;;;;;;2.75;2.75;23.50;99.90;;;;;;4988416;28;8906;-51
2022/06/02 02:33:18;;;;;;;;;2.00;2.00;23.40;99.90;;;;;;5013129;28;8889;-61
2022/06/02 02:36:13;;;;;;;;;2.25;2.00;23.30;99.90;;;;;;5016399;28;9000;-59
2022/06/02 02:38:48;;;;;;;;;2.50;2.00;23.30;99.90;;;;;;5020589;28;9026;-51
2022/06/02 02:41:42;;;;;;;;;4.50;2.00;23.30;99.90;;;;;;5016898;28;8964;-52
2022/06/02 02:44:25;;;;;;;;;2.75;2.75;23.20;99.90;;;;;;5013434;28;8873;-52
2022/06/02 02:47:31;;;;;;;;;2.00;2.00;23.10;99.90;;;;;;5017094;28;9570;-53
2022/06/02 02:50:46;;;;;;;;;2.75;2.75;23.20;99.90;;;;;;5006479;28;9053;-53
2022/06/02 02:53:35;;;;;;;;;5.25;4.00;23.10;99.90;;;;;;4973748;28;8876;-53
2022/06/02 02:56:18;;;;;;;;;2.00;2.00;23.00;99.90;;;;;;4970109;28;9019;-53
2022/06/02 02:59:04;;;;;;;;;2.50;2.50;23.00;99.90;;;;;;5010698;28;8853;-52
2022/06/02 03:02:19;;;;;;;;;1.75;1.75;22.90;99.90;;;;;;5013433;28;8995;-54
2022/06/02 03:05:09;;;;;;;;;5.00;2.00;22.80;99.90;;;;;;5001940;28;8857;-48
2022/06/02 03:07:40;;;;;;;;;3.00;3.00;22.70;99.90;;;;;;5015739;28;8841;-53
2022/06/02 03:10:18;;;;;;;;;2.00;2.00;22.60;99.90;;;;;;5015654;28;9011;-51
2022/06/02 03:13:18;;;;;;;;;3.00;3.00;22.50;99.90;;;;;;5017196;28;8866;-53
2022/06/02 03:15:55;;;;;;;;;2.00;2.00;22.50;99.90;;;;;;5016128;28;8935;-51
2022/06/02 03:18:59;;;;;;;;;2.00;2.00;22.40;99.90;;;;;;5016280;28;9042;-52
2022/06/02 03:21:38;;;;;;;;;2.67;2.67;22.30;99.90;;;;;;5015405;28;9033;-51
2022/06/02 03:24:12;;;;;;;;;2.00;2.00;22.20;99.90;;;;;;5018163;28;9115;-50
2022/06/02 03:26:51;;;;;;;;;3.00;3.00;22.20;99.90;;;;;;5017431;28;8988;-50
2022/06/02 03:29:44;;;;;;;;;4.33;3.00;22.20;99.90;;;;;;5016561;28;9070;-50
2022/06/02 03:32:33;;;;;;;;;3.00;3.00;22.10;99.90;;;;;;5014181;28;9139;-51
2022/06/02 03:35:17;;;;;;;;;3.00;2.67;22.00;99.90;;;;;;5014847;28;9069;-49
2022/06/02 03:38:18;;;;;;;;;2.00;2.00;22.00;99.90;;;;;;5018184;28;8998;-51
2022/06/02 03:41:12;;;;;;;;;2.00;2.00;21.90;99.90;;;;;;5016077;28;9066;-52
2022/06/02 03:43:51;;;;;;;;;2.33;2.33;21.90;99.90;;;;;;5025575;28;9214;-50
2022/06/02 03:46:33;;;;;;;;;3.00;3.00;21.80;99.90;;;;;;5014885;28;9170;-49
2022/06/02 03:49:17;;;;;;;;;4.00;4.00;21.70;99.90;;;;;;5016707;28;9209;-51
2022/06/02 03:52:24;;;;;;;;;4.00;4.00;21.70;99.90;;;;;;5020211;28;9259;-50
2022/06/02 03:54:59;;;;;;;;;3.33;3.33;21.60;99.90;;;;;;5016410;28;9395;-51
2022/06/02 03:57:30;;;;;;;;;2.00;2.00;21.60;99.90;;;;;;5019442;28;9218;-52
2022/06/02 04:00:24;;;;;;;;;3.00;3.00;21.50;99.90;;;;;;5012131;28;9231;-50
2022/06/02 04:03:02;;;;;;;;;2.00;2.00;21.50;99.90;;;;;;5015531;28;9232;-52
2022/06/02 04:05:59;;;;;;;;;5.00;5.00;21.40;99.90;;;;;;5015199;28;9388;-50
2022/06/02 04:09:01;;;;;;;;;2.00;2.00;21.40;99.90;;;;;;5013979;28;9315;-51
2022/06/02 04:14:53;;;;;;;;;3.00;2.33;21.30;99.90;;;;;;5016047;28;11342;-51
2022/06/02 04:17:42;;;;;;;;;5.00;5.00;21.20;99.90;;;;;;5015851;28;9379;-49
2022/06/02 04:20:56;;;;;;;;;5.00;3.00;21.20;99.90;;;;;;5012274;28;9638;-50
2022/06/02 04:23:40;;;;;;;;;3.00;3.00;21.10;99.90;;;;;;5005090;28;10246;-51
2022/06/02 04:26:42;;;;;;;;;2.00;2.00;21.10;99.90;;;;;;5015519;28;9431;-47
2022/06/02 04:29:15;;;;;;;;;4.00;4.00;21.10;99.90;;;;;;5012504;28;9214;-50
2022/06/02 04:32:08;;;;;;;;;2.00;2.00;21.00;99.90;;;;;;5010758;28;9218;-52
2022/06/02 04:34:59;;;;;;;;;5.33;3.67;21.00;99.90;;;;;;5017369;28;9506;-50
2022/06/02 04:38:06;;;;;;;;;3.00;3.00;21.00;99.90;;;;;;5013164;28;9344;-51
2022/06/02 04:41:00;;;;;;;;;4.00;4.00;20.90;99.90;;;;;;5013756;28;9375;-48
2022/06/02 04:43:37;;;;;;;;;2.33;2.33;20.90;99.90;;;;;;5016232;28;9423;-52
2022/06/02 04:46:34;;;;;;;;;3.00;3.00;20.90;99.90;;;;;;5010972;28;9511;-52
2022/06/02 04:49:19;;;;;;;;;3.33;3.33;20.80;99.90;;;;;;5014684;28;9619;-51
2022/06/02 04:51:50;;;;;;;;;2.67;2.67;20.70;99.90;;;;;;5016854;28;9527;-50
2022/06/02 04:54:38;;;;;;;;;4.00;3.00;20.70;99.90;;;;;;5014756;28;9568;-50
2022/06/02 04:57:34;;;;;;;;;4.25;3.00;20.70;99.90;;;;;;5018798;28;9402;-51
2022/06/02 05:00:19;;;;;;;;;2.00;2.00;20.70;99.90;;;;;;5017362;28;9557;-49
2022/06/02 05:02:59;;;;;;;;;2.00;2.00;20.70;99.90;;;;;;5028602;28;9359;-50
2022/06/02 05:05:38;;;;;;;;;2.67;2.67;20.60;99.90;;;;;;5017471;28;9568;-50
2022/06/02 05:08:21;;;;;;;;;3.33;2.67;20.60;99.90;;;;;;5015539;28;9439;-59
2022/06/02 05:11:16;;;;;;;;;2.00;2.00;20.60;99.90;;;;;;5012090;28;9549;-59
2022/06/02 05:14:17;;;;;;;;;2.33;2.33;20.50;99.90;;;;;;5011258;28;9654;-49
2022/06/02 05:17:23;;;;;;;;;2.67;2.67;20.50;99.90;;;;;;5018376;28;9485;-46
2022/06/02 05:20:33;;;;;;;;;4.75;4.75;20.40;99.90;;;;;;5017708;28;9516;-51
2022/06/02 05:23:42;;;;;;;;;2.75;2.75;20.30;99.90;;;;;;5021518;28;9614;-51
2022/06/02 05:26:50;;;;;;;;;3.00;3.00;20.30;99.90;;;;;;5017966;28;9548;-49
2022/06/02 05:29:47;;;;;;;;;4.00;4.00;20.30;99.90;;;;;;5022135;28;9563;-50
2022/06/02 05:32:59;;;;;;;;;1.25;1.25;20.30;99.90;;;;;;5019371;28;9600;-54
2022/06/02 05:36:04;;;;;;;;;3.00;3.00;20.30;99.90;;;;;;5016643;28;9637;-49
2022/06/02 05:39:08;;;;;;;;;3.75;2.00;20.20;99.90;;;;;;5019410;28;9607;-50
2022/06/02 05:42:05;;;;;;;;;3.25;3.25;20.20;99.90;;;;;;5014950;28;9644;-52
2022/06/02 05:44:54;;;;;;;;;2.75;2.75;20.10;99.90;;;;;;5019539;28;9797;-52
2022/06/02 05:47:31;;;;;;;;;3.50;2.50;20.00;99.90;;;;;;5016900;28;9799;-51
2022/06/02 05:50:44;;;;;;;;;4.00;3.00;20.00;99.90;;;;;;5018264;28;9558;-48
2022/06/02 05:53:26;;;;;;;;;2.00;2.00;20.00;99.90;;;;;;5004330;28;9728;-52
2022/06/02 05:56:26;;;;;;;;;3.00;3.00;20.00;99.90;;;;;;5018099;28;9763;-51
2022/06/02 05:59:17;;;;;;;;;2.00;2.00;20.00;99.90;;;;;;5019702;28;9759;-49
2022/06/02 06:02:19;;;;;;;;;4.25;4.00;19.90;99.90;;;;;;5018106;28;9852;-53
2022/06/02 06:05:24;;;;;;;;;4.50;4.50;19.90;99.90;;;;;;5020364;28;9945;-52
2022/06/02 06:08:15;;;;;;;;;3.00;3.00;19.90;99.90;;;;;;5015229;28;9800;-53
2022/06/02 06:11:18;;;;;;;;;2.33;2.33;19.80;99.90;;;;;;5019440;28;9755;-49
2022/06/02 06:14:12;;;;;;;;;4.00;2.75;19.80;99.90;;;;;;5018805;28;9503;-51
2022/06/02 06:17:19;;;;;;;;;2.75;2.75;19.80;99.90;;;;;;5010752;28;9861;-48
2022/06/02 06:20:13;;;;;;;;;3.25;2.75;19.70;99.90;;;;;;5015977;28;10490;-53
2022/06/02 06:23:13;;;;;;;;;3.25;2.00;19.70;99.90;;;;;;5016417;28;9950;-51
2022/06/02 06:25:59;;;;;;;;;3.25;3.25;19.70;99.90;;;;;;5018743;28;9911;-52
2022/06/02 06:28:42;;;;;;;;;4.00;3.00;19.60;99.90;;;;;;5011518;28;9953;-49
2022/06/02 06:31:51;;;;;;;;;3.00;3.00;19.60;99.90;;;;;;5015712;28;11007;-50
2022/06/02 06:34:45;;;;;;;;;3.75;3.75;19.50;99.90;;;;;;5018034;28;9869;-51
2022/06/02 06:37:25;;;;;;;;;3.50;3.50;19.50;99.90;;;;;;5011555;28;9922;-53
2022/06/02 06:40:17;;;;;;;;;3.25;2.00;19.40;99.90;;;;;;5017312;28;9863;-51
2022/06/02 06:42:59;;;;;;;;;2.75;2.75;19.30;99.90;;;;;;5018643;28;9922;-52
2022/06/02 06:45:42;;;;;;;;;3.00;3.00;19.30;99.90;;;;;;5014509;28;9926;-52
2022/06/02 06:48:30;;;;;;;;;5.00;3.00;19.30;99.90;;;;;;5021584;28;9938;-48
2022/06/02 06:51:23;;;;;;;;;4.75;3.75;19.30;99.90;;;;;;5018445;28;9863;-49
2022/06/02 06:54:21;;;;;;;;;3.00;3.00;19.30;99.90;;;;;;5019854;28;9930;-51
2022/06/02 06:57:06;;;;;;;;;2.00;2.00;19.30;99.90;;;;;;5020795;28;9864;-52
2022/06/02 06:59:59;;;;;;;;;3.75;2.00;19.30;99.90;;;;;;5012485;28;10183;-51
2022/06/02 07:02:49;;;;;;;;;2.25;2.25;19.30;99.90;;;;;;5017290;28;10119;-48
2022/06/02 07:05:28;;;;;;;;;2.75;2.75;19.20;99.90;;;;;;5013382;28;10425;-51
2022/06/02 07:08:24;;;;;;;;;3.00;3.00;19.20;99.90;;;;;;5017727;28;10360;-53
2022/06/02 07:14:21;;;;;;;;;5.50;4.00;19.10;99.90;;;;;;5013110;28;10408;-52
2022/06/02 07:16:56;;;;;;;;;4.50;4.50;19.10;99.90;;;;;;5014959;28;10367;-52
2022/06/02 07:19:48;;;;;;;;;4.50;4.50;19.10;99.90;;;;;;5013664;28;10577;-52
2022/06/02 07:22:45;;;;;;;;;6.25;4.25;19.00;99.90;;;;;;5019047;28;10706;-51
2022/06/02 07:25:55;;;;;;;;;5.75;5.75;18.90;99.90;;;;;;5014411;28;10611;-51
2022/06/02 07:28:50;;;;;;;;;8.50;8.50;18.90;99.90;;;;;;5015257;28;10252;-53
2022/06/02 07:32:08;;;;;;;;;5.00;5.00;18.90;99.90;;;;;;5018369;28;10572;-50
2022/06/02 07:35:00;;;;;;;;;7.75;6.00;18.90;99.90;;;;;;5017264;28;10592;-52
2022/06/02 07:38:06;;;;;;;;;5.00;5.00;18.90;99.90;;;;;;5016400;28;10501;-51
2022/06/02 07:41:15;;;;;;;;;3.25;3.25;18.80;99.90;;;;;;5014051;28;10392;-48
2022/06/02 07:44:23;;;;;;;;;5.50;5.50;18.70;99.90;;;;;;5020179;28;11206;-50
2022/06/02 07:47:08;;;;;;;;;5.50;5.50;18.70;99.90;;;;;;5030201;28;10550;-50
2022/06/02 07:50:08;;;;;;;;;9.25;7.00;18.70;99.90;;;;;;5017032;28;10619;-54
2022/06/02 07:52:54;;;;;;;;;6.50;6.50;18.60;99.90;;;;;;5015259;28;10525;-53
2022/06/02 07:55:49;;;;;;;;;7.50;7.50;18.60;99.90;;;;;;5012112;28;10376;-51
2022/06/02 07:58:28;;;;;;;;;6.00;6.00;18.60;99.90;;;;;;5020298;28;10752;-51
2022/06/02 08:01:08;;;;;;;;;5.75;5.75;18.60;99.90;;;;;;5017422;28;10659;-51
2022/06/02 08:03:56;;;;;;;;;6.25;6.25;18.50;99.90;;;;;;5017812;28;10334;-52
2022/06/02 08:06:28;;;;;;;;;7.50;7.50;18.50;99.90;;;;;;5013848;28;11665;-49
2022/06/02 08:09:52;;;;;;;;;7.75;7.75;18.50;99.90;;;;;;5012092;28;10437;-51
2022/06/02 08:12:40;;;;;;;;;7.50;6.25;18.50;99.90;;;;;;5014396;28;10661;-50
2022/06/02 08:15:33;;;;;;;;;6.75;6.75;18.40;99.90;;;;;;5015391;28;10493;-49
2022/06/02 08:18:21;;;;;;;;;6.75;6.75;18.40;99.90;;;;;;5013822;28;10461;-51
2022/06/02 08:20:58;;;;;;;;;6.25;4.25;18.40;99.90;;;;;;5012529;28;10624;-51
2022/06/02 08:23:52;;;;;;;;;5.25;5.25;18.30;99.90;;;;;;5017069;28;10516;-47
2022/06/02 08:26:40;;;;;;;;;4.25;4.25;18.30;99.90;;;;;;5013188;28;10579;-47
2022/06/02 08:29:24;;;;;;;;;3.00;3.00;18.30;99.90;;;;;;5016439;28;10268;-52
2022/06/02 08:32:18;;;;;;;;;2.75;2.75;18.30;99.90;;;;;;5009744;28;10484;-47
2022/06/02 08:35:12;;;;;;;;;2.00;2.00;18.20;99.90;;;;;;5013567;28;10229;-51
2022/06/02 08:37:54;;;;;;;;;5.25;2.25;18.20;99.90;;;;;;5016319;28;10341;-51
2022/06/02 08:41:28;;;;;;;;;3.50;3.50;18.20;99.90;;;;;;5016454;28;10123;-51
2022/06/02 08:44:23;;;;;;;;;4.25;3.00;18.10;99.90;;;;;;5016698;28;10135;-51
2022/06/02 08:47:02;;;;;;;;;3.25;3.25;18.10;99.90;;;;;;5013939;28;10188;-52
2022/06/02 08:50:10;;;;;;;;;3.50;3.50;18.10;99.90;;;;;;5015272;28;10194;-50
2022/06/02 08:53:16;;;;;;;;;4.00;4.00;18.10;99.90;;;;;;5010993;28;10204;-52
2022/06/02 08:56:23;;;;;;;;;2.50;2.50;18.10;99.90;;;;;;5013740;28;10115;-50
2022/06/02 08:59:04;;;;;;;;;2.00;2.00;18.10;99.90;;;;;;5012565;28;10425;-50
2022/06/02 09:02:19;;;;;;;;;2.75;2.75;18.00;99.90;;;;;;5012155;28;10458;-51
2022/06/02 09:05:21;;;;;;;;;1.00;1.00;18.00;99.90;;;;;;5005149;28;10410;-51
2022/06/02 09:08:14;;;;;;;;;3.00;3.00;18.00;99.90;;;;;;5015538;28;10236;-47
2022/06/02 09:10:53;;;;;;;;;2.00;2.00;18.00;99.90;;;;;;5018105;28;10231;-49
2022/06/02 09:13:26;;;;;;;;;4.00;1.50;18.00;99.90;;;;;;5014221;28;10344;-51
2022/06/02 09:16:23;;;;;;;;;3.00;3.00;17.90;99.90;;;;;;5015027;28;10290;-50
2022/06/02 09:19:25;;;;;;;;;4.25;2.25;17.90;99.90;;;;;;5012503;28;10379;-52
2022/06/02 09:22:22;;;;;;;;;2.75;2.50;17.90;99.90;;;;;;5018776;28;10316;-50
2022/06/02 09:25:21;;;;;;;;;3.00;3.00;17.90;99.90;;;;;;5015609;28;10398;-50
2022/06/02 09:28:17;;;;;;;;;4.75;3.00;17.90;99.90;;;;;;5016502;28;10315;-49
2022/06/02 09:31:14;;;;;;;;;1.00;1.00;17.80;99.90;;;;;;5012878;28;10393;-49
2022/06/02 09:33:44;;;;;;;;;3.00;3.00;17.80;99.90;;;;;;5012469;28;10939;-50
2022/06/02 09:36:33;;;;;;;;;3.25;3.25;17.80;99.90;;;;;;5011295;28;10310;-50
2022/06/02 09:39:34;;;;;;;;;3.75;3.00;17.80;99.90;;;;;;5014559;28;10341;-48
2022/06/02 09:42:42;;;;;;;;;3.00;3.00;17.80;99.90;;;;;;5015918;28;10352;-51
2022/06/02 09:45:40;;;;;;;;;2.00;2.00;17.80;99.90;;;;;;5013109;28;13292;-48
2022/06/02 09:48:40;;;;;;;;;2.00;2.00;17.80;99.90;;;;;;5016668;28;10399;-52
2022/06/02 09:51:46;;;;;;;;;2.00;2.00;17.70;99.90;;;;;;5013586;28;10573;-51
2022/06/02 09:54:34;;;;;;;;;3.00;2.50;17.70;99.90;;;;;;5014778;28;10839;-48
2022/06/02 09:57:55;;;;;;;;;3.25;3.25;17.70;99.90;;;;;;5011201;28;10668;-51
2022/06/02 10:01:15;;;;;;;;;2.00;2.00;17.70;99.90;;;;;;5009293;28;11168;-52
2022/06/02 10:04:08;;;;;;;;;3.00;3.00;17.50;99.90;;;;;;5015619;28;11114;-52
2022/06/02 10:07:13;;;;;;;;;2.75;2.75;17.50;99.90;;;;;;5016967;28;11455;-48
2022/06/02 10:10:16;;;;;;;;;1.50;1.50;17.50;99.90;;;;;;5020762;28;11471;-49
2022/06/02 10:13:04;;;;;;;;;8.00;8.00;17.50;99.90;;;;;;5019616;28;11595;-50
2022/06/02 10:15:36;;;;;;;;;6.00;5.25;17.50;99.90;;;;;;5014206;28;11490;-52
2022/06/02 10:18:30;;;;;;;;;8.75;8.75;17.40;99.90;;;;;;5017369;28;11606;-50
2022/06/02 10:21:26;;;;;;;;;8.50;8.50;17.40;99.90;;;;;;5012054;28;11540;-47
2022/06/02 10:24:28;;;;;;;;;27.75;26.50;17.30;99.90;;;;;;5015318;28;11513;-51
2022/06/02 10:27:11;;;;;;;;;29.50;28.75;17.30;99.90;;;;;;5015944;28;11581;-49
2022/06/02 10:30:21;;;;;;;;;30.00;27.50;17.30;99.90;;;;;;5016144;28;11638;-49
2022/06/02 10:33:41;;;;;;;;;34.75;32.50;17.30;99.90;;;;;;5023302;28;11598;-49
2022/06/02 10:36:43;;;;;;;;;32.00;31.00;17.20;99.90;;;;;;4983858;28;11626;-51
2022/06/02 10:39:45;;;;;;;;;33.67;32.00;17.10;99.90;;;;;;4977577;28;11977;-50
2022/06/02 10:42:24;;;;;;;;;36.00;33.33;17.20;99.90;;;;;;4968929;28;11644;-51
2022/06/02 10:45:26;;;;;;;;;38.00;34.33;17.20;99.90;;;;;;4974138;28;11616;-52
2022/06/02 10:48:50;;;;;;;;;41.00;35.33;17.20;99.90;;;;;;4975769;28;8897;-51
2022/06/02 10:51:47;;;;;;;;;39.00;35.00;17.20;99.90;;;;;;4956912;28;9027;-52
2022/06/02 10:54:43;;;;;;;;;44.00;38.33;17.20;99.90;;;;;;4975882;28;8853;-51
2022/06/02 10:57:49;;;;;;;;;45.00;39.33;17.20;99.90;;;;;;4975708;28;8870;-51
2022/06/02 11:00:42;;;;;;;;;43.33;37.67;17.10;99.90;;;;;;4973293;28;8913;-47
2022/06/02 11:03:49;;;;;;;;;44.67;38.67;17.10;99.90;;;;;;4977439;28;8881;-48
2022/06/02 11:06:39;;;;;;;;;47.67;39.33;17.10;99.90;;;;;;4976497;28;8907;-51
2022/06/02 11:09:37;;;;;;;;;50.67;42.33;17.00;99.90;;;;;;4974299;28;8827;-49
2022/06/02 11:12:32;;;;;;;;;51.67;44.00;17.10;99.90;;;;;;4976098;28;9052;-50
2022/06/02 11:15:34;;;;;;;;;51.67;44.00;17.00;99.90;;;;;;4970629;28;8854;-48
2022/06/02 11:18:17;;;;;;;;;54.33;45.67;17.10;99.90;;;;;;4973358;28;8985;-49
2022/06/02 11:21:32;;;;;;;;;54.33;45.67;17.00;99.90;;;;;;4974543;28;9815;-50
2022/06/02 11:24:28;;;;;;;;;54.00;45.33;17.00;99.90;;;;;;4973382;28;8866;-51
2022/06/02 11:27:30;;;;;;;;;58.67;48.67;17.00;99.90;;;;;;4987919;28;8858;-50
2022/06/02 11:30:43;;;;;;;;;59.00;49.00;17.00;99.90;;;;;;4973765;28;8855;-51
2022/06/02 11:33:40;;;;;;;;;59.67;49.67;17.00;99.90;;;;;;4958789;28;8865;-49
2022/06/02 11:36:28;;;;;;;;;56.33;46.67;16.90;99.90;;;;;;5000159;28;8985;-50
2022/06/02 11:39:38;;;;;;;;;54.67;46.00;16.90;99.90;;;;;;5019761;28;8873;-49
2022/06/02 11:42:32;;;;;;;;;48.33;41.67;16.90;99.90;;;;;;5018151;28;8861;-51
2022/06/02 11:45:35;;;;;;;;;39.67;35.33;16.90;99.90;;;;;;5009926;28;8884;-52
2022/06/02 11:48:23;;;;;;;;;42.00;36.67;16.90;99.90;;;;;;5019551;28;8853;-50
2022/06/02 11:51:43;;;;;;;;;42.67;37.67;16.90;99.90;;;;;;5015970;28;8858;-51
2022/06/02 11:54:32;;;;;;;;;33.33;31.67;16.90;99.90;;;;;;4998446;28;9640;-46
2022/06/02 11:57:40;;;;;;;;;37.33;33.00;16.90;99.90;;;;;;5017059;28;8893;-51
2022/06/02 12:01:12;;;;;;;;;27.75;26.75;16.80;99.90;;;;;;5011772;28;8888;-50
2022/06/02 12:04:12;;;;;;;;;18.50;18.50;16.80;99.90;;;;;;4975600;28;11626;-53
2022/06/02 12:07:11;;;;;;;;;14.50;14.00;16.80;99.90;;;;;;4974856;28;11555;-53
2022/06/02 12:09:41;;;;;;;;;11.25;11.25;16.80;99.90;;;;;;5015663;28;11609;-50
2022/06/02 12:12:49;;;;;;;;;20.00;20.00;16.80;99.90;;;;;;5010773;28;11650;-52
2022/06/02 12:15:37;;;;;;;;;17.00;15.25;16.80;99.90;;;;;;5014393;28;11639;-52
2022/06/02 12:18:38;;;;;;;;;12.75;12.75;16.80;99.90;;;;;;5015967;28;11595;-52
2022/06/02 12:21:26;;;;;;;;;8.25;8.25;16.70;99.90;;;;;;5013758;28;11813;-51
2022/06/02 12:23:59;;;;;;;;;5.50;3.75;16.70;99.90;;;;;;5013086;28;11589;-51
2022/06/02 12:26:53;;;;;;;;;5.25;3.75;16.70;99.90;;;;;;5014558;28;11562;-51
2022/06/02 12:29:29;;;;;;;;;7.25;5.75;16.60;99.90;;;;;;5017146;28;11659;-48
2022/06/02 12:32:48;;;;;;;;;3.50;3.50;16.70;99.90;;;;;;5006842;28;11581;-51
2022/06/02 12:35:38;;;;;;;;;3.25;3.25;16.70;99.90;;;;;;5014161;28;12458;-47
2022/06/02 12:38:27;;;;;;;;;3.50;3.50;16.60;99.90;;;;;;5012306;28;11665;-51
2022/06/02 12:41:03;;;;;;;;;3.00;3.00;16.60;99.90;;;;;;5011635;28;10804;-48
2022/06/02 12:44:05;;;;;;;;;3.00;3.00;16.60;99.90;;;;;;5015452;28;10787;-47
2022/06/02 12:47:01;;;;;;;;;4.50;4.50;16.60;99.90;;;;;;5015223;28;11567;-49
2022/06/02 12:49:35;;;;;;;;;2.50;2.50;16.60;99.90;;;;;;5011829;28;11134;-51
2022/06/02 12:52:39;;;;;;;;;4.50;4.50;16.60;99.90;;;;;;5018735;28;10706;-50
2022/06/02 12:55:21;;;;;;;;;3.75;2.75;16.60;99.90;;;;;;5017766;28;10824;-52
2022/06/02 12:58:00;;;;;;;;;4.00;4.00;16.60;99.90;;;;;;5015099;28;11047;-50
2022/06/02 13:00:54;;;;;;;;;4.25;3.50;16.50;99.90;;;;;;5010299;28;11480;-53
2022/06/02 13:04:02;;;;;;;;;3.00;3.00;16.50;99.90;;;;;;5013486;28;11471;-50
2022/06/02 13:07:07;;;;;;;;;3.00;3.00;16.50;99.90;;;;;;5012398;28;10931;-51
2022/06/02 13:10:07;;;;;;;;;4.00;4.00;16.50;99.90;;;;;;5014461;28;11548;-47
2022/06/02 13:12:53;;;;;;;;;2.25;2.25;16.50;99.90;;;;;;5014239;28;10793;-49
2022/06/02 13:15:37;;;;;;;;;4.75;4.00;16.50;99.90;;;;;;5014331;28;11372;-49
2022/06/02 13:18:24;;;;;;;;;4.00;4.00;16.40;99.90;;;;;;5018657;28;10368;-49
2022/06/02 13:21:16;;;;;;;;;3.25;3.25;16.40;99.90;;;;;;5016500;28;10693;-51
2022/06/02 13:24:07;;;;;;;;;3.00;3.00;16.50;99.90;;;;;;5014704;28;10686;-50
2022/06/02 13:27:14;;;;;;;;;3.50;3.50;16.50;99.90;;;;;;5014309;28;10693;-51
2022/06/02 13:30:19;;;;;;;;;3.50;3.50;16.50;99.90;;;;;;5019255;28;10861;-50
2022/06/02 13:33:01;;;;;;;;;4.25;4.25;16.50;99.90;;;;;;5012626;28;10718;-47
2022/06/02 13:35:53;;;;;;;;;4.25;3.50;16.40;99.90;;;;;;5017655;28;10756;-50
2022/06/02 13:38:39;;;;;;;;;3.50;3.50;16.40;99.90;;;;;;5015888;28;10857;-46
2022/06/02 13:41:38;;;;;;;;;2.25;2.25;16.40;99.90;;;;;;5016306;28;10680;-47
2022/06/02 13:44:29;;;;;;;;;3.00;3.00;16.40;99.90;;;;;;5020121;28;10683;-50
2022/06/02 13:47:32;;;;;;;;;3.75;2.75;16.40;99.90;;;;;;5032998;28;10608;-49
2022/06/02 13:50:31;;;;;;;;;3.25;3.25;16.30;99.90;;;;;;5013003;28;10703;-53
2022/06/02 13:53:33;;;;;;;;;4.75;4.75;16.30;99.90;;;;;;5018218;28;10706;-51
2022/06/02 13:59:30;;;;;;;;;3.50;2.25;16.30;99.90;;;;;;5019856;28;10748;-51
2022/06/02 14:02:39;;;;;;;;;3.00;3.00;16.30;99.90;;;;;;5019112;28;10690;-49
2022/06/02 14:05:16;;;;;;;;;3.75;3.75;16.30;99.90;;;;;;5000819;28;10792;-50
2022/06/02 14:08:10;;;;;;;;;3.00;3.00;16.30;99.90;;;;;;5000704;28;10692;-54
2022/06/02 14:10:50;;;;;;;;;4.00;4.00;16.30;99.90;;;;;;5010516;28;10608;-50
2022/06/02 14:14:04;;;;;;;;;3.00;3.00;16.40;99.90;;;;;;5009965;28;10659;-51
2022/06/02 14:16:43;;;;;;;;;3.75;2.00;16.30;99.90;;;;;;4997299;28;10716;-47
2022/06/02 14:19:37;;;;;;;;;5.00;3.75;16.30;99.90;;;;;;5019773;28;10806;-51
2022/06/02 14:22:44;;;;;;;;;3.00;3.00;16.30;99.90;;;;;;5019598;28;11910;-49
2022/06/02 14:25:31;;;;;;;;;2.75;2.75;16.40;99.90;;;;;;5015966;28;11079;-52
2022/06/02 14:28:10;;;;;;;;;2.75;2.75;16.30;99.90;;;;;;5021970;28;11514;-53
2022/06/02 14:31:10;;;;;;;;;3.00;3.00;16.30;99.90;;;;;;5016884;28;10717;-50
2022/06/02 14:33:46;;;;;;;;;3.00;3.00;16.30;99.90;;;;;;5016867;28;10670;-50
2022/06/02 14:36:22;;;;;;;;;3.50;3.50;16.30;99.90;;;;;;5021919;28;10636;-51
2022/06/02 14:39:32;;;;;;;;;3.00;3.00;16.30;99.90;;;;;;5016844;28;10418;-51
2022/06/02 14:46:01;;;;;;;;;2.00;2.00;16.40;99.90;;;;;;5016045;28;12510;-51
2022/06/02 14:48:39;;;;;;;;;4.75;4.75;16.30;99.90;;;;;;5016068;28;11076;-52
2022/06/02 14:51:13;;;;;;;;;22.50;22.50;16.40;99.90;;;;;;5016327;28;12362;-51
2022/06/02 14:53:55;;;;;;;;;25.25;24.25;16.40;99.90;;;;;;5020183;28;11794;-51
2022/06/02 14:57:03;;;;;;;;;22.25;22.25;16.50;99.90;;;;;;5018565;28;12426;-53
2022/06/02 14:59:57;;;;;;;;;27.75;26.00;16.50;99.90;;;;;;5017423;28;11675;-51
2022/06/02 15:02:57;;;;;;;;;27.25;25.75;16.50;99.90;;;;;;5018129;28;11612;-51
2022/06/02 15:05:47;;;;;;;;;26.00;25.75;16.50;99.90;;;;;;5020582;28;11576;-53
2022/06/02 15:09:19;;;;;;;;;19.00;19.00;16.50;99.90;;;;;;5015509;28;12406;-51
2022/06/02 15:11:55;;;;;;;;;20.25;20.25;16.40;99.90;;;;;;4981200;28;11475;-50
2022/06/02 15:15:04;;;;;;;;;12.00;12.00;16.50;99.90;;;;;;5012050;28;11609;-51
2022/06/02 15:17:56;;;;;;;;;11.25;11.25;16.50;99.90;;;;;;5009258;28;11472;-48
2022/06/02 15:20:27;;;;;;;;;6.75;6.75;16.50;99.90;;;;;;5020163;28;11618;-49